sensor_id;sensor_type;location;lat;lon;timestamp;pressure;altitude;pressure_sealevel;temperature;humidity
36798;BME280;22748;8.426;99.512;2022-11-20T00:01:24;100495.34;;;27.93;69.33
36798;BME280;22748;8.426;99.512;2022-11-20T00:03:59;100504.00;;;27.88;69.61
36798;BME280;22748;8.426;99.512;2022-11-20T00:06:35;100507.72;;;27.87;69.78
36798;BME280;22748;8.426;99.512;2022-11-20T00:09:14;100521.31;;;27.79;70.26
36798;BME280;22748;8.426;99.512;2022-11-20T00:11:44;100522.53;;;27.83;70.27
36798;BME280;22748;8.426;99.512;2022-11-20T00:14:16;100527.53;;;27.86;70.29
36798;BME280;22748;8.426;99.512;2022-11-20T00:16:45;100533.53;;;27.88;69.81
36798;BME280;22748;8.426;99.512;2022-11-20T00:19:16;100536.22;;;27.88;69.81
36798;BME280;22748;8.426;99.512;2022-11-20T00:21:49;100544.06;;;27.89;69.71
36798;BME280;22748;8.426;99.512;2022-11-20T00:24:24;100542.41;;;27.88;70.12
36798;BME280;22748;8.426;99.512;2022-11-20T00:26:56;100547.97;;;27.87;69.52
36798;BME280;22748;8.426;99.512;2022-11-20T00:29:27;100562.22;;;27.87;70.01
36798;BME280;22748;8.426;99.512;2022-11-20T00:32:00;100563.06;;;27.88;70.01
36798;BME280;22748;8.426;99.512;2022-11-20T00:34:29;100569.03;;;27.90;70.32
36798;BME280;22748;8.426;99.512;2022-11-20T00:36:58;100589.47;;;27.91;69.60
36798;BME280;22748;8.426;99.512;2022-11-20T00:39:31;100586.16;;;27.89;69.54
36798;BME280;22748;8.426;99.512;2022-11-20T00:42:01;100591.53;;;27.89;70.01
36798;BME280;22748;8.426;99.512;2022-11-20T00:44:32;100595.06;;;27.89;69.76
36798;BME280;22748;8.426;99.512;2022-11-20T00:47:01;100604.94;;;27.89;70.05
36798;BME280;22748;8.426;99.512;2022-11-20T00:49:32;100605.56;;;27.91;70.19
36798;BME280;22748;8.426;99.512;2022-11-20T00:52:02;100607.25;;;27.92;70.37
36798;BME280;22748;8.426;99.512;2022-11-20T00:54:32;100617.13;;;27.92;70.71
36798;BME280;22748;8.426;99.512;2022-11-20T00:57:04;100622.31;;;27.93;70.58
36798;BME280;22748;8.426;99.512;2022-11-20T00:59:36;100637.59;;;27.93;70.41
36798;BME280;22748;8.426;99.512;2022-11-20T01:02:05;100639.44;;;27.92;70.19
36798;BME280;22748;8.426;99.512;2022-11-20T01:04:36;100649.34;;;27.92;70.22
36798;BME280;22748;8.426;99.512;2022-11-20T01:07:08;100649.16;;;27.93;70.33
36798;BME280;22748;8.426;99.512;2022-11-20T01:09:40;100657.19;;;27.93;70.01
36798;BME280;22748;8.426;99.512;2022-11-20T01:12:11;100655.13;;;27.95;70.39
36798;BME280;22748;8.426;99.512;2022-11-20T01:14:41;100658.47;;;27.97;70.31
36798;BME280;22748;8.426;99.512;2022-11-20T01:17:12;100663.81;;;27.97;70.81
36798;BME280;22748;8.426;99.512;2022-11-20T01:19:42;100670.00;;;27.98;70.68
36798;BME280;22748;8.426;99.512;2022-11-20T01:22:12;100672.91;;;27.96;70.70
36798;BME280;22748;8.426;99.512;2022-11-20T01:24:44;100669.19;;;27.97;70.54
36798;BME280;22748;8.426;99.512;2022-11-20T01:27:15;100670.22;;;27.96;70.75
36798;BME280;22748;8.426;99.512;2022-11-20T01:29:44;100681.97;;;27.95;70.61
36798;BME280;22748;8.426;99.512;2022-11-20T01:32:14;100682.41;;;27.99;70.61
36798;BME280;22748;8.426;99.512;2022-11-20T01:34:45;100682.41;;;27.99;70.97
36798;BME280;22748;8.426;99.512;2022-11-20T01:37:16;100685.94;;;27.99;70.51
36798;BME280;22748;8.426;99.512;2022-11-20T01:39:48;100684.06;;;28.00;70.88
36798;BME280;22748;8.426;99.512;2022-11-20T01:42:18;100690.25;;;28.00;70.78
36798;BME280;22748;8.426;99.512;2022-11-20T01:47:46;100682.81;;;28.02;71.17
36798;BME280;22748;8.426;99.512;2022-11-20T01:50:18;100685.50;;;28.02;71.43
36798;BME280;22748;8.426;99.512;2022-11-20T01:52:55;100684.88;;;28.00;71.33
36798;BME280;22748;8.426;99.512;2022-11-20T01:55:36;100689.44;;;28.00;71.38
36798;BME280;22748;8.426;99.512;2022-11-20T01:58:08;100681.19;;;28.01;71.37
36798;BME280;22748;8.426;99.512;2022-11-20T02:00:39;100687.38;;;28.02;71.23
36798;BME280;22748;8.426;99.512;2022-11-20T02:03:13;100685.50;;;28.02;71.79
36798;BME280;22748;8.426;99.512;2022-11-20T02:05:51;100689.88;;;28.03;71.55
36798;BME280;22748;8.426;99.512;2022-11-20T02:08:20;100688.63;;;28.06;71.73
36798;BME280;22748;8.426;99.512;2022-11-20T02:10:54;100683.88;;;28.08;71.75
36798;BME280;22748;8.426;99.512;2022-11-20T02:13:24;100683.88;;;28.08;71.73
36798;BME280;22748;8.426;99.512;2022-11-20T02:16:10;100690.06;;;28.08;71.55
36798;BME280;22748;8.426;99.512;2022-11-20T02:18:40;100693.19;;;28.12;71.99
36798;BME280;22748;8.426;99.512;2022-11-20T02:21:21;100689.69;;;28.12;71.67
36798;BME280;22748;8.426;99.512;2022-11-20T02:24:01;100691.97;;;28.15;71.74
36798;BME280;22748;8.426;99.512;2022-11-20T02:26:36;100689.06;;;28.16;71.98
36798;BME280;22748;8.426;99.512;2022-11-20T02:29:08;100689.47;;;28.20;71.71
36798;BME280;22748;8.426;99.512;2022-11-20T02:31:40;100691.97;;;28.21;71.53
36798;BME280;22748;8.426;99.512;2022-11-20T02:34:11;100684.34;;;28.25;71.93
36798;BME280;22748;8.426;99.512;2022-11-20T02:36:42;100683.31;;;28.26;72.12
36798;BME280;22748;8.426;99.512;2022-11-20T02:39:15;100679.19;;;28.30;71.54
36798;BME280;22748;8.426;99.512;2022-11-20T02:41:47;100676.50;;;28.30;71.68
36798;BME280;22748;8.426;99.512;2022-11-20T02:44:19;100674.63;;;28.30;71.75
36798;BME280;22748;8.426;99.512;2022-11-20T02:46:50;100677.94;;;28.33;71.42
36798;BME280;22748;8.426;99.512;2022-11-20T02:49:22;100670.94;;;28.38;71.42
36798;BME280;22748;8.426;99.512;2022-11-20T02:51:54;100677.56;;;28.42;71.38
36798;BME280;22748;8.426;99.512;2022-11-20T02:54:28;100679.19;;;28.43;71.84
36798;BME280;22748;8.426;99.512;2022-11-20T02:56:57;100671.75;;;28.45;71.55
36798;BME280;22748;8.426;99.512;2022-11-20T02:59:27;100679.47;;;28.48;71.69
36798;BME280;22748;8.426;99.512;2022-11-20T03:01:59;100685.47;;;28.50;71.28
36798;BME280;22748;8.426;99.512;2022-11-20T03:04:29;100675.09;;;28.54;71.68
36798;BME280;22748;8.426;99.512;2022-11-20T03:06:59;100674.72;;;28.57;71.13
36798;BME280;22748;8.426;99.512;2022-11-20T03:09:32;100680.09;;;28.57;70.96
36798;BME280;22748;8.426;99.512;2022-11-20T03:12:02;100678.03;;;28.59;71.35
36798;BME280;22748;8.426;99.512;2022-11-20T03:14:35;100680.47;;;28.61;71.33
36798;BME280;22748;8.426;99.512;2022-11-20T03:17:04;100666.66;;;28.64;71.26
36798;BME280;22748;8.426;99.512;2022-11-20T03:19:35;100667.47;;;28.64;70.81
36798;BME280;22748;8.426;99.512;2022-11-20T03:22:05;100671.81;;;28.65;70.78
36798;BME280;22748;8.426;99.512;2022-11-20T03:24:38;100668.09;;;28.66;70.98
36798;BME280;22748;8.426;99.512;2022-11-20T03:27:08;100664.78;;;28.71;70.59
36798;BME280;22748;8.426;99.512;2022-11-20T03:29:41;100666.84;;;28.76;70.55
36798;BME280;22748;8.426;99.512;2022-11-20T03:32:12;100663.97;;;28.77;70.69
36798;BME280;22748;8.426;99.512;2022-11-20T03:34:41;100665.19;;;28.81;70.89
36798;BME280;22748;8.426;99.512;2022-11-20T03:37:11;100670.16;;;28.84;70.92
36798;BME280;22748;8.426;99.512;2022-11-20T03:39:42;100665.19;;;28.88;70.69
36798;BME280;22748;8.426;99.512;2022-11-20T03:42:11;100663.13;;;28.90;70.63
36798;BME280;22748;8.426;99.512;2022-11-20T03:44:56;100667.06;;;28.94;70.53
36798;BME280;22748;8.426;99.512;2022-11-20T03:47:25;100660.19;;;28.98;69.42
36798;BME280;22748;8.426;99.512;2022-11-20T03:49:57;100656.69;;;29.04;69.34
36798;BME280;22748;8.426;99.512;2022-11-20T03:52:29;100658.97;;;29.07;69.29
36798;BME280;22748;8.426;99.512;2022-11-20T03:55:00;100651.94;;;29.13;68.98
36798;BME280;22748;8.426;99.512;2022-11-20T03:57:29;100655.66;;;29.19;68.87
36798;BME280;22748;8.426;99.512;2022-11-20T03:59:59;100652.34;;;29.23;68.97
36798;BME280;22748;8.426;99.512;2022-11-20T04:02:29;100655.03;;;29.23;68.99
36798;BME280;22748;8.426;99.512;2022-11-20T04:04:58;100643.00;;;29.26;69.11
36798;BME280;22748;8.426;99.512;2022-11-20T04:07:27;100640.75;;;29.29;69.18
36798;BME280;22748;8.426;99.512;2022-11-20T04:09:57;100643.19;;;29.31;68.82
36798;BME280;22748;8.426;99.512;2022-11-20T04:12:28;100640.31;;;29.32;68.38
36798;BME280;22748;8.426;99.512;2022-11-20T04:15:00;100635.94;;;29.38;68.50
36798;BME280;22748;8.426;99.512;2022-11-20T04:17:29;100630.13;;;29.41;68.69
36798;BME280;22748;8.426;99.512;2022-11-20T04:20:01;100621.03;;;29.42;68.42
36798;BME280;22748;8.426;99.512;2022-11-20T04:22:32;100631.38;;;29.45;68.06
36798;BME280;22748;8.426;99.512;2022-11-20T04:25:01;100631.78;;;29.49;68.38
36798;BME280;22748;8.426;99.512;2022-11-20T04:27:33;100623.69;;;29.49;68.34
36798;BME280;22748;8.426;99.512;2022-11-20T04:30:04;100616.25;;;29.51;67.97
36798;BME280;22748;8.426;99.512;2022-11-20T04:32:34;100614.16;;;29.53;68.36
36798;BME280;22748;8.426;99.512;2022-11-20T04:35:05;100615.00;;;29.53;68.65
36798;BME280;22748;8.426;99.512;2022-11-20T04:37:35;100607.53;;;29.56;69.12
36798;BME280;22748;8.426;99.512;2022-11-20T04:40:06;100607.53;;;29.56;68.84
36798;BME280;22748;8.426;99.512;2022-11-20T04:42:38;100602.75;;;29.58;68.43
36798;BME280;22748;8.426;99.512;2022-11-20T04:45:11;100604.19;;;29.60;68.75
36798;BME280;22748;8.426;99.512;2022-11-20T04:47:43;100592.97;;;29.63;68.41
36798;BME280;22748;8.426;99.512;2022-11-20T04:50:16;100592.78;;;29.65;68.38
36798;BME280;22748;8.426;99.512;2022-11-20T04:52:45;100594.22;;;29.67;68.48
36798;BME280;22748;8.426;99.512;2022-11-20T04:55:17;100586.94;;;29.68;68.21
36798;BME280;22748;8.426;99.512;2022-11-20T04:57:50;100588.66;;;29.69;68.42
36798;BME280;22748;8.426;99.512;2022-11-20T05:00:21;100583.06;;;29.70;68.67
36798;BME280;22748;8.426;99.512;2022-11-20T05:02:50;100577.69;;;29.70;68.28
36798;BME280;22748;8.426;99.512;2022-11-20T05:05:21;100575.59;;;29.72;67.48
36798;BME280;22748;8.426;99.512;2022-11-20T05:07:51;100567.53;;;29.72;67.62
36798;BME280;22748;8.426;99.512;2022-11-20T05:10:23;100556.31;;;29.76;67.54
36798;BME280;22748;8.426;99.512;2022-11-20T05:12:57;100551.75;;;29.76;67.56
36798;BME280;22748;8.426;99.512;2022-11-20T05:15:27;100539.94;;;29.77;67.66
36798;BME280;22748;8.426;99.512;2022-11-20T05:17:59;100537.47;;;29.76;67.68
36798;BME280;22748;8.426;99.512;2022-11-20T05:20:29;100529.19;;;29.77;67.88
36798;BME280;22748;8.426;99.512;2022-11-20T05:22:59;100519.22;;;29.78;67.63
36798;BME280;22748;8.426;99.512;2022-11-20T05:25:29;100520.44;;;29.82;67.24
36798;BME280;22748;8.426;99.512;2022-11-20T05:28:01;100506.19;;;29.81;67.24
36798;BME280;22748;8.426;99.512;2022-11-20T05:30:32;100505.56;;;29.79;67.57
36798;BME280;22748;8.426;99.512;2022-11-20T05:33:04;100494.81;;;29.79;67.34
36798;BME280;22748;8.426;99.512;2022-11-20T05:35:35;100491.88;;;29.81;67.69
36798;BME280;22748;8.426;99.512;2022-11-20T05:38:04;100489.78;;;29.83;67.64
36798;BME280;22748;8.426;99.512;2022-11-20T05:40:33;100485.00;;;29.85;67.14
36798;BME280;22748;8.426;99.512;2022-11-20T05:43:05;100478.16;;;29.89;66.98
36798;BME280;22748;8.426;99.512;2022-11-20T05:45:35;100473.97;;;29.93;66.78
36798;BME280;22748;8.426;99.512;2022-11-20T05:48:05;100475.19;;;29.97;66.11
36798;BME280;22748;8.426;99.512;2022-11-20T05:50:37;100466.66;;;30.00;66.04
36798;BME280;22748;8.426;99.512;2022-11-20T05:53:08;100465.63;;;30.01;66.11
36798;BME280;22748;8.426;99.512;2022-11-20T05:55:39;100456.13;;;29.99;65.90
36798;BME280;22748;8.426;99.512;2022-11-20T05:58:10;100451.78;;;29.98;65.88
36798;BME280;22748;8.426;99.512;2022-11-20T06:00:41;100443.47;;;29.99;65.07
36798;BME280;22748;8.426;99.512;2022-11-20T06:03:13;100443.03;;;30.02;64.63
36798;BME280;22748;8.426;99.512;2022-11-20T06:05:44;100434.94;;;30.02;64.31
36798;BME280;22748;8.426;99.512;2022-11-20T06:08:14;100429.94;;;30.06;64.18
36798;BME280;22748;8.426;99.512;2022-11-20T06:10:46;100424.94;;;30.09;64.04
36798;BME280;22748;8.426;99.512;2022-11-20T06:13:18;100424.72;;;30.11;64.14
36798;BME280;22748;8.426;99.512;2022-11-20T06:15:50;100412.06;;;30.11;64.30
36798;BME280;22748;8.426;99.512;2022-11-20T06:18:23;100409.16;;;30.13;63.75
36798;BME280;22748;8.426;99.512;2022-11-20T06:21:04;100404.16;;;30.17;63.47
36798;BME280;22748;8.426;99.512;2022-11-20T06:23:36;100408.66;;;30.23;63.56
36798;BME280;22748;8.426;99.512;2022-11-20T06:26:07;100400.34;;;30.24;63.81
36798;BME280;22748;8.426;99.512;2022-11-20T06:28:41;100394.13;;;30.24;64.07
36798;BME280;22748;8.426;99.512;2022-11-20T06:31:13;100380.06;;;30.22;63.17
36798;BME280;22748;8.426;99.512;2022-11-20T06:33:42;100386.50;;;30.21;63.90
36798;BME280;22748;8.426;99.512;2022-11-20T06:36:14;100367.78;;;30.26;63.32
36798;BME280;22748;8.426;99.512;2022-11-20T06:38:47;100376.50;;;30.28;63.28
36798;BME280;22748;8.426;99.512;2022-11-20T06:41:20;100370.06;;;30.29;63.32
36798;BME280;22748;8.426;99.512;2022-11-20T06:43:51;100367.38;;;30.29;63.46
36798;BME280;22748;8.426;99.512;2022-11-20T06:46:20;100361.34;;;30.27;63.68
36798;BME280;22748;8.426;99.512;2022-11-20T06:48:51;100352.25;;;30.28;63.09
36798;BME280;22748;8.426;99.512;2022-11-20T06:51:22;100359.50;;;30.27;62.83
36798;BME280;22748;8.426;99.512;2022-11-20T06:53:52;100343.75;;;30.24;63.09
36798;BME280;22748;8.426;99.512;2022-11-20T06:56:24;100344.38;;;30.26;62.03
36798;BME280;22748;8.426;99.512;2022-11-20T06:58:58;100337.94;;;30.27;62.14
36798;BME280;22748;8.426;99.512;2022-11-20T07:01:27;100336.91;;;30.28;62.04
36798;BME280;22748;8.426;99.512;2022-11-20T07:03:57;100325.31;;;30.28;61.53
36798;BME280;22748;8.426;99.512;2022-11-20T07:06:26;100319.94;;;30.28;61.07
36798;BME280;22748;8.426;99.512;2022-11-20T07:08:58;100317.84;;;30.30;61.35
36798;BME280;22748;8.426;99.512;2022-11-20T07:11:27;100315.75;;;30.32;61.43
36798;BME280;22748;8.426;99.512;2022-11-20T07:13:59;100309.88;;;30.35;61.21
36798;BME280;22748;8.426;99.512;2022-11-20T07:16:28;100314.00;;;30.38;61.58
36798;BME280;22748;8.426;99.512;2022-11-20T07:18:58;100304.66;;;30.40;61.00
36798;BME280;22748;8.426;99.512;2022-11-20T07:21:28;100298.81;;;30.43;61.05
36798;BME280;22748;8.426;99.512;2022-11-20T07:23:57;100294.00;;;30.45;60.84
36798;BME280;22748;8.426;99.512;2022-11-20T07:26:26;100289.81;;;30.49;60.74
36798;BME280;22748;8.426;99.512;2022-11-20T07:28:56;100285.03;;;30.51;61.45
36798;BME280;22748;8.426;99.512;2022-11-20T07:31:27;100284.78;;;30.53;60.88
36798;BME280;22748;8.426;99.512;2022-11-20T07:33:59;100281.84;;;30.54;61.26
36798;BME280;22748;8.426;99.512;2022-11-20T07:36:30;100274.84;;;30.53;60.83
36798;BME280;22748;8.426;99.512;2022-11-20T07:39:01;100273.56;;;30.56;61.10
36798;BME280;22748;8.426;99.512;2022-11-20T07:41:32;100277.66;;;30.59;61.06
36798;BME280;22748;8.426;99.512;2022-11-20T07:44:01;100278.47;;;30.59;61.49
36798;BME280;22748;8.426;99.512;2022-11-20T07:46:33;100269.78;;;30.57;61.00
36798;BME280;22748;8.426;99.512;2022-11-20T07:49:05;100276.84;;;30.58;61.07
36798;BME280;22748;8.426;99.512;2022-11-20T07:51:34;100273.09;;;30.59;60.39
36798;BME280;22748;8.426;99.512;2022-11-20T07:54:04;100268.53;;;30.60;60.72
36798;BME280;22748;8.426;99.512;2022-11-20T07:56:35;100266.41;;;30.62;60.81
36798;BME280;22748;8.426;99.512;2022-11-20T07:59:05;100264.19;;;30.59;61.11
36798;BME280;22748;8.426;99.512;2022-11-20T08:01:38;100257.97;;;30.58;60.70
36798;BME280;22748;8.426;99.512;2022-11-20T08:04:08;100250.72;;;30.59;60.72
36798;BME280;22748;8.426;99.512;2022-11-20T08:06:39;100246.13;;;30.59;60.77
36798;BME280;22748;8.426;99.512;2022-11-20T08:09:09;100239.94;;;30.59;60.26
36798;BME280;22748;8.426;99.512;2022-11-20T08:11:39;100242.41;;;30.60;60.66
36798;BME280;22748;8.426;99.512;2022-11-20T08:14:22;100244.63;;;30.63;60.33
36798;BME280;22748;8.426;99.512;2022-11-20T08:16:58;100240.06;;;30.64;60.76
36798;BME280;22748;8.426;99.512;2022-11-20T08:19:28;100233.63;;;30.65;60.67
36798;BME280;22748;8.426;99.512;2022-11-20T08:21:57;100233.41;;;30.66;60.56
36798;BME280;22748;8.426;99.512;2022-11-20T08:24:29;100227.75;;;30.68;60.58
36798;BME280;22748;8.426;99.512;2022-11-20T08:26:59;100232.56;;;30.66;60.65
36798;BME280;22748;8.426;99.512;2022-11-20T08:29:29;100226.72;;;30.69;60.51
36798;BME280;22748;8.426;99.512;2022-11-20T08:32:00;100218.63;;;30.69;60.84
36798;BME280;22748;8.426;99.512;2022-11-20T08:34:32;100217.22;;;30.66;60.11
36798;BME280;22748;8.426;99.512;2022-11-20T08:37:04;100218.03;;;30.67;60.10
36798;BME280;22748;8.426;99.512;2022-11-20T08:39:33;100212.66;;;30.67;60.59
36798;BME280;22748;8.426;99.512;2022-11-20T08:42:08;100219.69;;;30.68;60.23
36798;BME280;22748;8.426;99.512;2022-11-20T08:44:37;100219.22;;;30.71;60.43
36798;BME280;22748;8.426;99.512;2022-11-20T08:47:09;100219.81;;;30.73;60.22
36798;BME280;22748;8.426;99.512;2022-11-20T08:49:38;100222.75;;;30.71;60.52
36798;BME280;22748;8.426;99.512;2022-11-20T08:52:08;100219.81;;;30.73;60.12
36798;BME280;22748;8.426;99.512;2022-11-20T08:54:38;100225.22;;;30.73;60.52
36798;BME280;22748;8.426;99.512;2022-11-20T08:57:09;100230.34;;;30.74;60.66
36798;BME280;22748;8.426;99.512;2022-11-20T08:59:39;100225.56;;;30.76;60.67
36798;BME280;22748;8.426;99.512;2022-11-20T09:02:10;100228.03;;;30.78;60.50
36798;BME280;22748;8.426;99.512;2022-11-20T09:04:40;100238.81;;;30.78;60.90
36798;BME280;22748;8.426;99.512;2022-11-20T09:07:11;100232.81;;;30.76;61.06
36798;BME280;22748;8.426;99.512;2022-11-20T09:09:40;100230.59;;;30.73;61.10
36798;BME280;22748;8.426;99.512;2022-11-20T09:12:10;100228.94;;;30.72;61.01
36798;BME280;22748;8.426;99.512;2022-11-20T09:14:39;100235.41;;;30.71;61.17
36798;BME280;22748;8.426;99.512;2022-11-20T09:17:12;100234.81;;;30.69;61.04
36798;BME280;22748;8.426;99.512;2022-11-20T09:19:42;100230.47;;;30.68;61.15
36798;BME280;22748;8.426;99.512;2022-11-20T09:22:12;100231.53;;;30.67;60.94
36798;BME280;22748;8.426;99.512;2022-11-20T09:24:43;100235.84;;;30.68;60.79
36798;BME280;22748;8.426;99.512;2022-11-20T09:27:12;100237.50;;;30.69;61.26
36798;BME280;22748;8.426;99.512;2022-11-20T09:29:41;100233.75;;;30.70;61.43
36798;BME280;22748;8.426;99.512;2022-11-20T09:32:13;100236.44;;;30.70;60.88
36798;BME280;22748;8.426;99.512;2022-11-20T09:34:42;100241.38;;;30.73;61.21
36798;BME280;22748;8.426;99.512;2022-11-20T09:37:13;100232.22;;;30.74;61.28
36798;BME280;22748;8.426;99.512;2022-11-20T09:39:43;100241.97;;;30.75;60.94
36798;BME280;22748;8.426;99.512;2022-11-20T09:42:22;100243.00;;;30.74;61.20
36798;BME280;22748;8.426;99.512;2022-11-20T09:45:06;100245.50;;;30.75;61.08
36798;BME280;22748;8.426;99.512;2022-11-20T09:47:55;100254.41;;;30.76;61.46
36798;BME280;22748;8.426;99.512;2022-11-20T09:50:33;100250.66;;;30.77;61.29
36798;BME280;22748;8.426;99.512;2022-11-20T09:53:12;100252.50;;;30.76;61.49
36798;BME280;22748;8.426;99.512;2022-11-20T09:55:43;100254.41;;;30.76;61.73
36798;BME280;22748;8.426;99.512;2022-11-20T09:58:23;100254.63;;;30.74;61.55
36798;BME280;22748;8.426;99.512;2022-11-20T10:01:03;100254.63;;;30.74;61.86
36798;BME280;22748;8.426;99.512;2022-11-20T10:03:44;100260.25;;;30.73;61.92
36798;BME280;22748;8.426;99.512;2022-11-20T10:06:18;100257.56;;;30.73;61.73
36798;BME280;22748;8.426;99.512;2022-11-20T10:09:01;100258.59;;;30.72;62.00
36798;BME280;22748;8.426;99.512;2022-11-20T10:11:46;100265.06;;;30.71;61.63
36798;BME280;22748;8.426;99.512;2022-11-20T10:14:28;100265.06;;;30.71;61.85
36798;BME280;22748;8.426;99.512;2022-11-20T10:17:16;100267.97;;;30.69;61.98
36798;BME280;22748;8.426;99.512;2022-11-20T10:20:02;100258.00;;;30.70;61.55
36798;BME280;22748;8.426;99.512;2022-11-20T10:22:54;100262.59;;;30.69;61.20
36798;BME280;22748;8.426;99.512;2022-11-20T10:25:39;100267.16;;;30.69;61.52
36798;BME280;22748;8.426;99.512;2022-11-20T10:28:42;100263.88;;;30.67;61.39
36798;BME280;22748;8.426;99.512;2022-11-20T10:31:27;100269.25;;;30.67;61.48
36798;BME280;22748;8.426;99.512;2022-11-20T10:34:06;100267.59;;;30.66;61.44
36798;BME280;22748;8.426;99.512;2022-11-20T10:36:46;100278.38;;;30.66;61.42
36798;BME280;22748;8.426;99.512;2022-11-20T10:39:25;100271.97;;;30.67;61.81
36798;BME280;22748;8.426;99.512;2022-11-20T10:42:01;100267.38;;;30.67;61.57
36798;BME280;22748;8.426;99.512;2022-11-20T10:44:36;100270.06;;;30.67;61.70
36798;BME280;22748;8.426;99.512;2022-11-20T10:47:21;100274.19;;;30.70;62.07
36798;BME280;22748;8.426;99.512;2022-11-20T10:49:55;100271.97;;;30.67;61.38
36798;BME280;22748;8.426;99.512;2022-11-20T10:52:33;100267.59;;;30.66;61.35
36798;BME280;22748;8.426;99.512;2022-11-20T10:55:23;100266.78;;;30.65;61.59
36798;BME280;22748;8.426;99.512;2022-11-20T10:58:01;100268.66;;;30.65;61.84
36798;BME280;22748;8.426;99.512;2022-11-20T11:00:34;100273.00;;;30.66;61.64
36798;BME280;22748;8.426;99.512;2022-11-20T11:03:20;100267.25;;;30.62;61.06
36798;BME280;22748;8.426;99.512;2022-11-20T11:06:02;100264.56;;;30.62;61.30
36798;BME280;22748;8.426;99.512;2022-11-20T11:08:39;100267.47;;;30.61;61.40
36798;BME280;22748;8.426;99.512;2022-11-20T11:11:20;100257.75;;;30.60;61.75
36798;BME280;22748;8.426;99.512;2022-11-20T11:14:04;100265.84;;;30.60;61.73
36798;BME280;22748;8.426;99.512;2022-11-20T11:16:34;100271.00;;;30.61;61.82
36798;BME280;22748;8.426;99.512;2022-11-20T11:19:06;100273.09;;;30.59;61.89
36798;BME280;22748;8.426;99.512;2022-11-20T11:21:37;100275.19;;;30.57;61.69
36798;BME280;22748;8.426;99.512;2022-11-20T11:24:21;100286.81;;;30.58;62.16
36798;BME280;22748;8.426;99.512;2022-11-20T11:26:57;100284.13;;;30.58;62.29
36798;BME280;22748;8.426;99.512;2022-11-20T11:29:31;100289.50;;;30.58;62.17
36798;BME280;22748;8.426;99.512;2022-11-20T11:32:05;100291.59;;;30.55;61.84
36798;BME280;22748;8.426;99.512;2022-11-20T11:34:37;100293.47;;;30.55;61.56
36798;BME280;22748;8.426;99.512;2022-11-20T11:37:16;100284.78;;;30.53;61.81
36798;BME280;22748;8.426;99.512;2022-11-20T11:39:49;100297.44;;;30.52;61.99
36798;BME280;22748;8.426;99.512;2022-11-20T11:42:21;100295.56;;;30.53;62.12
36798;BME280;22748;8.426;99.512;2022-11-20T11:44:50;100291.00;;;30.53;61.85
36798;BME280;22748;8.426;99.512;2022-11-20T11:47:36;100293.72;;;30.53;61.46
36798;BME280;22748;8.426;99.512;2022-11-20T11:50:18;100296.63;;;30.52;61.55
36798;BME280;22748;8.426;99.512;2022-11-20T11:53:12;100296.84;;;30.50;61.63
36798;BME280;22748;8.426;99.512;2022-11-20T11:55:47;100302.22;;;30.50;61.95
36798;BME280;22748;8.426;99.512;2022-11-20T11:58:34;100312.19;;;30.50;62.08
36798;BME280;22748;8.426;99.512;2022-11-20T12:01:24;100318.88;;;30.47;61.92
36798;BME280;22748;8.426;99.512;2022-11-20T12:04:04;100317.81;;;30.48;61.97
36798;BME280;22748;8.426;99.512;2022-11-20T12:06:39;100318.03;;;30.47;62.00
36798;BME280;22748;8.426;99.512;2022-11-20T12:09:13;100324.25;;;30.47;61.86
36798;BME280;22748;8.426;99.512;2022-11-20T12:11:53;100318.25;;;30.45;61.83
36798;BME280;22748;8.426;99.512;2022-11-20T12:14:30;100326.34;;;30.45;61.47
36798;BME280;22748;8.426;99.512;2022-11-20T12:17:03;100336.31;;;30.45;61.56
36798;BME280;22748;8.426;99.512;2022-11-20T12:19:35;100333.84;;;30.43;61.39
36798;BME280;22748;8.426;99.512;2022-11-20T12:22:17;100348.38;;;30.42;61.89
36798;BME280;22748;8.426;99.512;2022-11-20T12:25:00;100347.53;;;30.42;61.91
36798;BME280;22748;8.426;99.512;2022-11-20T12:27:53;100369.31;;;30.40;62.12
36798;BME280;22748;8.426;99.512;2022-11-20T12:30:27;100360.19;;;30.41;62.13
36798;BME280;22748;8.426;99.512;2022-11-20T12:33:09;100370.38;;;30.39;61.85
36798;BME280;22748;8.426;99.512;2022-11-20T12:35:52;100378.44;;;30.39;62.40
36798;BME280;22748;8.426;99.512;2022-11-20T12:41:40;100388.41;;;30.39;62.09
36798;BME280;22748;8.426;99.512;2022-11-20T12:44:41;100401.06;;;30.38;62.20
36798;BME280;22748;8.426;99.512;2022-11-20T12:47:38;100406.44;;;30.38;62.64
36798;BME280;22748;8.426;99.512;2022-11-20T12:50:22;100411.84;;;30.38;62.71
36798;BME280;22748;8.426;99.512;2022-11-20T12:52:58;100406.44;;;30.38;62.52
36798;BME280;22748;8.426;99.512;2022-11-20T12:55:42;100416.38;;;30.38;62.70
36798;BME280;22748;8.426;99.512;2022-11-20T12:58:24;100417.22;;;30.38;62.61
36798;BME280;22748;8.426;99.512;2022-11-20T13:01:05;100424.72;;;30.36;62.75
36798;BME280;22748;8.426;99.512;2022-11-20T13:04:02;100424.72;;;30.36;63.11
36798;BME280;22748;8.426;99.512;2022-11-20T13:06:38;100428.44;;;30.35;63.11
36798;BME280;22748;8.426;99.512;2022-11-20T13:09:12;100444.59;;;30.35;63.34
36798;BME280;22748;8.426;99.512;2022-11-20T13:11:47;100450.22;;;30.33;63.41
36798;BME280;22748;8.426;99.512;2022-11-20T13:14:29;100450.44;;;30.32;63.50
36798;BME280;22748;8.426;99.512;2022-11-20T13:17:10;100464.94;;;30.31;63.44
36798;BME280;22748;8.426;99.512;2022-11-20T13:19:47;100464.94;;;30.31;63.55
36798;BME280;22748;8.426;99.512;2022-11-20T13:22:26;100471.59;;;30.28;63.22
36798;BME280;22748;8.426;99.512;2022-11-20T13:24:55;100470.78;;;30.28;63.06
36798;BME280;22748;8.426;99.512;2022-11-20T13:27:25;100479.88;;;30.27;63.58
36798;BME280;22748;8.426;99.512;2022-11-20T13:30:02;100482.00;;;30.25;63.59